Time;durP1;ratioP1;P1;durP2;ratioP2;P2;SDS_P1;SDS_P2;PMS_P1;PMS_P2;Temp;Humidity;BMP_temperature;BMP_pressure;BME280_temperature;BME280_humidity;BME280_pressure;Samples;Min_cycle;Max_cycle;Signal;HPM_P1;HPM_P2
2020/12/17 00:01:36;;;;;;;40.70;10.20;;;2.00;99.90;;;;;;5049105;28;20530;-56
2020/12/17 00:04:02;;;;;;;50.03;9.97;;;2.00;99.90;;;;;;5058402;22;20681;-62
2020/12/17 00:06:28;;;;;;;38.73;10.10;;;2.00;99.90;;;;;;5041942;28;20321;-62
2020/12/17 00:08:54;;;;;;;54.07;9.80;;;2.00;99.90;;;;;;5052288;28;20892;-61
2020/12/17 00:11:20;;;;;;;43.73;9.23;;;2.00;99.90;;;;;;5045959;28;20180;-61
2020/12/17 00:13:45;;;;;;;67.17;10.50;;;2.00;99.90;;;;;;5035924;28;20470;-61
2020/12/17 00:16:11;;;;;;;47.60;9.83;;;2.10;99.90;;;;;;5029797;28;20186;-63
2020/12/17 00:18:37;;;;;;;47.80;8.40;;;2.10;99.90;;;;;;5027511;28;20174;-62
2020/12/17 00:21:02;;;;;;;30.23;9.20;;;2.10;99.90;;;;;;5028199;28;20198;-64
2020/12/17 00:23:28;;;;;;;35.93;10.13;;;2.10;99.90;;;;;;5031230;28;20586;-61
2020/12/17 00:25:54;;;;;;;31.83;8.60;;;2.20;99.90;;;;;;5029425;28;20703;-62
2020/12/17 00:28:19;;;;;;;40.87;9.63;;;2.20;99.90;;;;;;4997210;28;20194;-62
2020/12/17 00:30:45;;;;;;;51.60;9.77;;;2.20;99.90;;;;;;5029949;28;20176;-62
2020/12/17 00:33:10;;;;;;;60.80;9.87;;;2.20;99.90;;;;;;5030096;28;20210;-62
2020/12/17 00:35:36;;;;;;;61.43;10.60;;;2.20;99.90;;;;;;5031268;28;20638;-63
2020/12/17 00:38:02;;;;;;;42.67;8.77;;;2.20;99.90;;;;;;5030464;28;20182;-62
2020/12/17 00:40:27;;;;;;;72.57;9.37;;;2.20;99.90;;;;;;5029466;28;20613;-65
2020/12/17 00:42:53;;;;;;;39.23;9.33;;;2.20;99.90;;;;;;5014729;28;20462;-61
2020/12/17 00:45:19;;;;;;;29.67;9.70;;;2.20;99.90;;;;;;5029647;28;20206;-64
2020/12/17 00:47:45;;;;;;;78.13;9.73;;;2.20;99.90;;;;;;5028803;28;20237;-60
2020/12/17 00:50:11;;;;;;;48.40;9.93;;;2.20;99.90;;;;;;5018322;28;20194;-62
2020/12/17 00:52:38;;;;;;;19.10;9.03;;;2.30;99.90;;;;;;5031170;28;20170;-65
2020/12/17 00:55:05;;;;;;;28.40;9.20;;;2.30;99.90;;;;;;5028264;28;20428;-61
2020/12/17 00:57:31;;;;;;;43.50;9.73;;;2.30;99.90;;;;;;5007215;28;20451;-62
2020/12/17 00:59:57;;;;;;;41.50;9.60;;;2.30;99.90;;;;;;5031598;28;20424;-63
2020/12/17 01:02:23;;;;;;;34.47;9.63;;;2.30;99.90;;;;;;5007303;28;20452;-63
2020/12/17 01:04:49;;;;;;;39.57;10.13;;;2.30;99.90;;;;;;5029690;28;21069;-61
2020/12/17 01:07:16;;;;;;;33.03;9.30;;;2.40;99.90;;;;;;5034416;28;20693;-62
2020/12/17 01:09:42;;;;;;;31.20;9.77;;;2.40;99.90;;;;;;5026359;28;20426;-64
2020/12/17 01:12:09;;;;;;;52.10;9.93;;;2.40;99.90;;;;;;5024473;28;20439;-62
2020/12/17 01:14:35;;;;;;;98.43;13.10;;;2.40;99.90;;;;;;5010124;28;20208;-62
2020/12/17 01:17:02;;;;;;;31.17;10.87;;;2.50;99.90;;;;;;5027969;28;20472;-62
2020/12/17 01:19:28;;;;;;;66.20;10.90;;;2.50;99.90;;;;;;5024325;28;20442;-62
2020/12/17 01:21:54;;;;;;;26.07;9.10;;;2.50;99.90;;;;;;5031452;28;20486;-65
2020/12/17 01:24:19;;;;;;;62.30;9.93;;;2.40;99.90;;;;;;5010979;28;20221;-62
2020/12/17 01:26:45;;;;;;;49.43;10.60;;;2.50;99.90;;;;;;5028722;28;20407;-61
2020/12/17 01:29:11;;;;;;;55.47;9.00;;;2.40;99.90;;;;;;5018980;28;20184;-62
2020/12/17 01:31:36;;;;;;;33.53;9.03;;;2.50;99.90;;;;;;4998847;28;20182;-63
2020/12/17 01:34:02;;;;;;;22.63;8.83;;;2.50;99.90;;;;;;5026161;28;20224;-64
2020/12/17 01:36:27;;;;;;;66.90;9.27;;;2.40;99.90;;;;;;5001471;28;20203;-62
2020/12/17 01:38:53;;;;;;;39.13;8.27;;;2.40;99.90;;;;;;5025449;28;20186;-61
2020/12/17 01:41:19;;;;;;;54.97;9.73;;;2.40;99.90;;;;;;5009257;28;20664;-62
2020/12/17 01:43:45;;;;;;;39.10;9.20;;;2.40;99.90;;;;;;5010151;28;20240;-63
2020/12/17 01:46:13;;;;;;;84.77;9.97;;;2.40;99.90;;;;;;5010437;28;20194;-64
2020/12/17 01:48:40;;;;;;;71.90;11.33;;;2.40;99.90;;;;;;5011529;28;20433;-63
2020/12/17 01:51:06;;;;;;;35.53;8.73;;;2.40;99.90;;;;;;5030464;28;21076;-64
2020/12/17 01:53:37;;;;;;;21.63;8.10;;;2.30;99.90;;;;;;5026506;28;20493;-62
2020/12/17 01:56:03;;;;;;;50.73;9.27;;;2.30;99.90;;;;;;5026929;28;20184;-63
2020/12/17 01:58:36;;;;;;;39.17;9.33;;;2.30;99.90;;;;;;5028754;28;20442;-64
2020/12/17 02:01:02;;;;;;;73.27;9.27;;;2.40;99.90;;;;;;5026530;28;21237;-63
2020/12/17 02:03:28;;;;;;;48.67;10.23;;;2.40;99.90;;;;;;5013385;28;20527;-62
2020/12/17 02:05:56;;;;;;;30.17;9.30;;;2.40;99.90;;;;;;5019194;28;20442;-62
2020/12/17 02:08:25;;;;;;;22.27;8.90;;;2.40;99.90;;;;;;5020337;28;20521;-62
2020/12/17 02:10:51;;;;;;;30.70;9.43;;;2.40;99.90;;;;;;5024988;28;20434;-63
2020/12/17 02:13:32;;;;;;;48.67;8.97;;;2.40;99.90;;;;;;5027246;28;20470;-60
2020/12/17 02:15:58;;;;;;;32.07;8.63;;;2.50;99.90;;;;;;5009514;28;20642;-62
2020/12/17 02:18:25;;;;;;;44.20;9.23;;;2.50;99.90;;;;;;5028923;28;20503;-61
2020/12/17 02:20:50;;;;;;;29.70;9.00;;;2.50;99.90;;;;;;5009963;28;22284;-63
2020/12/17 02:23:16;;;;;;;36.47;9.43;;;2.60;99.90;;;;;;5023443;28;20462;-61
2020/12/17 02:25:41;;;;;;;72.43;10.93;;;2.60;99.90;;;;;;5028874;28;20256;-62
2020/12/17 02:28:07;;;;;;;44.53;10.50;;;2.60;99.90;;;;;;5025868;28;20194;-65
2020/12/17 02:30:33;;;;;;;38.00;9.90;;;2.60;99.90;;;;;;5020075;28;20183;-63
2020/12/17 02:32:59;;;;;;;40.37;10.03;;;2.60;99.90;;;;;;5026797;28;20480;-62
2020/12/17 02:35:25;;;;;;;30.93;10.47;;;2.60;99.90;;;;;;5008827;28;20211;-62
2020/12/17 02:37:50;;;;;;;47.53;10.10;;;2.60;99.90;;;;;;4993126;28;20465;-61
2020/12/17 02:40:16;;;;;;;11.80;6.93;;;2.60;99.90;;;;;;5014965;28;20229;-61
2020/12/17 02:42:41;;;;;;;19.37;8.17;;;2.60;99.90;;;;;;5027280;28;20186;-64
2020/12/17 02:45:07;;;;;;;17.80;9.37;;;2.60;99.90;;;;;;5030600;28;20206;-63
2020/12/17 02:47:33;;;;;;;14.60;7.90;;;2.60;99.90;;;;;;5010269;28;20682;-62
2020/12/17 02:49:58;;;;;;;20.83;8.10;;;2.60;99.90;;;;;;5008202;28;20193;-62
2020/12/17 02:52:24;;;;;;;14.53;7.97;;;2.70;99.90;;;;;;5023649;28;20654;-62
2020/12/17 02:54:49;;;;;;;22.33;8.83;;;2.70;99.90;;;;;;5025507;28;20574;-62
2020/12/17 02:57:16;;;;;;;15.00;7.57;;;2.70;99.90;;;;;;5020045;28;20194;-61
2020/12/17 02:59:41;;;;;;;16.63;7.53;;;2.80;99.90;;;;;;5010791;28;20623;-60
2020/12/17 03:02:07;;;;;;;19.93;7.70;;;2.70;99.90;;;;;;5013218;28;21038;-61
2020/12/17 03:04:33;;;;;;;16.73;7.67;;;2.80;99.90;;;;;;5024938;28;20267;-62
2020/12/17 03:06:58;;;;;;;15.13;7.57;;;2.70;99.90;;;;;;5006905;28;20760;-63
2020/12/17 03:09:24;;;;;;;16.03;8.03;;;2.70;99.90;;;;;;5031702;28;20184;-61
2020/12/17 03:11:50;;;;;;;24.63;9.50;;;2.70;99.90;;;;;;5030084;28;20183;-65
2020/12/17 03:14:15;;;;;;;16.93;6.90;;;2.70;99.90;;;;;;5026850;28;20454;-62
2020/12/17 03:16:41;;;;;;;12.30;7.40;;;2.70;99.90;;;;;;5009408;28;20689;-62
2020/12/17 03:19:07;;;;;;;18.00;6.87;;;2.70;99.90;;;;;;4992822;28;20207;-62
2020/12/17 03:21:33;;;;;;;13.10;7.33;;;2.70;99.90;;;;;;5027357;28;20189;-64
2020/12/17 03:23:58;;;;;;;13.10;7.30;;;2.70;99.90;;;;;;5026291;28;20584;-66
2020/12/17 03:26:24;;;;;;;12.80;6.80;;;2.70;99.90;;;;;;5026170;28;20664;-63
2020/12/17 03:28:50;;;;;;;12.00;6.90;;;2.70;99.90;;;;;;5023764;28;20431;-62
2020/12/17 03:31:17;;;;;;;15.93;6.80;;;2.70;99.90;;;;;;5030715;28;20187;-63
2020/12/17 03:33:43;;;;;;;9.40;5.97;;;2.70;99.90;;;;;;5035396;28;20202;-62
2020/12/17 03:36:08;;;;;;;12.33;7.17;;;2.70;99.90;;;;;;5021178;28;22626;-63
2020/12/17 03:38:34;;;;;;;11.83;6.03;;;2.60;99.90;;;;;;5026677;28;20745;-63
2020/12/17 03:41:00;;;;;;;9.83;6.07;;;2.60;99.90;;;;;;5014615;28;20208;-62
2020/12/17 03:43:26;;;;;;;13.50;5.53;;;2.60;99.90;;;;;;5013750;28;20992;-63
2020/12/17 03:45:51;;;;;;;17.40;6.00;;;2.60;99.90;;;;;;5007681;28;20186;-62
2020/12/17 03:48:17;;;;;;;8.03;5.20;;;2.50;99.90;;;;;;5034480;28;20180;-62
2020/12/17 03:50:42;;;;;;;12.60;6.30;;;2.50;99.90;;;;;;5015298;28;20272;-61
2020/12/17 03:53:09;;;;;;;13.03;6.70;;;2.50;99.90;;;;;;5046025;28;20210;-62
2020/12/17 03:55:34;;;;;;;10.33;6.70;;;2.50;99.90;;;;;;5027561;28;20443;-63
2020/12/17 03:58:00;;;;;;;13.07;6.63;;;2.50;99.90;;;;;;5031922;28;20192;-62
2020/12/17 04:00:25;;;;;;;10.33;5.50;;;2.50;99.90;;;;;;5033405;28;20208;-62
2020/12/17 04:02:51;;;;;;;10.40;5.73;;;2.50;99.90;;;;;;5031256;28;20211;-63
2020/12/17 04:05:17;;;;;;;13.27;6.77;;;2.50;99.90;;;;;;5029493;28;20217;-63
2020/12/17 04:07:43;;;;;;;11.47;5.80;;;2.50;99.90;;;;;;5019824;28;20937;-62
2020/12/17 04:10:08;;;;;;;17.13;6.93;;;2.40;99.90;;;;;;5024813;28;20709;-62
2020/12/17 04:12:34;;;;;;;13.23;6.50;;;2.50;99.90;;;;;;5029154;28;20211;-62
2020/12/17 04:15:00;;;;;;;11.10;6.60;;;2.50;99.90;;;;;;5028130;28;20225;-63
2020/12/17 04:17:25;;;;;;;14.23;5.80;;;2.50;99.90;;;;;;5035716;28;20175;-64
2020/12/17 04:19:51;;;;;;;11.23;5.50;;;2.50;99.90;;;;;;5010980;28;20218;-66
2020/12/17 04:22:16;;;;;;;12.53;5.90;;;2.50;99.90;;;;;;5017277;28;20281;-61
2020/12/17 04:24:46;;;;;;;11.10;5.57;;;2.50;99.90;;;;;;5011770;28;20212;-65
2020/12/17 04:27:12;;;;;;;14.93;6.27;;;2.50;99.90;;;;;;5039617;28;20182;-61
2020/12/17 04:29:38;;;;;;;9.30;5.70;;;2.50;99.90;;;;;;5024483;28;20422;-63
2020/12/17 04:32:05;;;;;;;8.60;5.70;;;2.50;99.90;;;;;;5017214;28;20972;-61
2020/12/17 04:34:31;;;;;;;15.23;7.00;;;2.50;99.90;;;;;;5029425;28;20552;-62
2020/12/17 04:36:57;;;;;;;12.83;6.93;;;2.50;99.90;;;;;;5034282;28;20521;-61
2020/12/17 04:39:23;;;;;;;11.90;6.17;;;2.50;99.90;;;;;;5025410;28;20983;-62
2020/12/17 04:41:51;;;;;;;14.87;6.40;;;2.50;99.90;;;;;;5025298;28;20538;-62
2020/12/17 04:44:17;;;;;;;9.80;5.20;;;2.50;99.90;;;;;;5029690;28;20492;-63
2020/12/17 04:46:53;;;;;;;14.80;6.60;;;2.50;99.90;;;;;;5029535;28;20973;-60
2020/12/17 04:49:22;;;;;;;14.47;6.93;;;2.50;99.90;;;;;;5025434;28;20514;-62
2020/12/17 04:51:55;;;;;;;11.07;6.17;;;2.50;99.90;;;;;;5033472;28;20434;-62
2020/12/17 04:54:22;;;;;;;9.50;5.20;;;2.50;99.90;;;;;;5015695;28;20466;-62
2020/12/17 04:57:06;;;;;;;8.63;5.10;;;2.50;99.90;;;;;;5028657;28;21344;-65
2020/12/17 04:59:46;;;;;;;13.47;6.83;;;2.60;99.90;;;;;;5019991;28;20805;-65
2020/12/17 05:02:13;;;;;;;9.10;5.70;;;2.60;99.90;;;;;;5024417;28;20496;-63
2020/12/17 05:04:41;;;;;;;11.60;5.63;;;2.60;99.90;;;;;;5014423;28;20465;-63
2020/12/17 05:07:10;;;;;;;12.03;6.10;;;2.50;99.90;;;;;;5029457;28;20510;-62
2020/12/17 05:09:36;;;;;;;12.43;6.70;;;2.60;99.90;;;;;;5035405;28;20468;-61
2020/12/17 05:12:02;;;;;;;10.70;6.63;;;2.60;99.90;;;;;;5006133;28;20796;-63
2020/12/17 05:14:31;;;;;;;11.93;6.57;;;2.60;99.90;;;;;;5020336;28;20465;-62
2020/12/17 05:16:57;;;;;;;11.03;6.20;;;2.60;99.90;;;;;;5002767;28;20475;-62
2020/12/17 05:19:25;;;;;;;9.40;6.27;;;2.60;99.90;;;;;;5027749;28;20426;-62
2020/12/17 05:21:52;;;;;;;11.17;6.60;;;2.60;99.90;;;;;;5020545;28;20424;-63
2020/12/17 05:24:21;;;;;;;9.83;5.37;;;2.60;99.90;;;;;;5025684;28;20539;-61
2020/12/17 05:26:51;;;;;;;11.10;5.73;;;2.60;99.90;;;;;;5013941;28;20449;-63
2020/12/17 05:29:17;;;;;;;11.37;6.53;;;2.60;99.90;;;;;;5018851;28;20439;-61
2020/12/17 05:31:44;;;;;;;11.07;5.80;;;2.60;99.90;;;;;;5027345;28;20439;-62
2020/12/17 05:34:11;;;;;;;9.73;5.40;;;2.70;99.90;;;;;;5019384;28;20458;-62
2020/12/17 05:36:39;;;;;;;11.33;6.73;;;2.70;99.90;;;;;;5029080;28;20462;-62
2020/12/17 05:39:13;;;;;;;10.07;5.90;;;2.70;99.90;;;;;;5046397;28;20782;-62
2020/12/17 05:41:43;;;;;;;13.93;6.33;;;2.70;99.90;;;;;;5005813;28;20436;-62
2020/12/17 05:44:09;;;;;;;10.97;4.93;;;2.70;99.90;;;;;;5003810;28;20461;-60
2020/12/17 05:46:41;;;;;;;10.30;6.47;;;2.80;99.90;;;;;;5023010;28;20423;-63
2020/12/17 05:49:19;;;;;;;10.83;6.07;;;2.80;99.90;;;;;;5025148;28;20429;-60
2020/12/17 05:51:45;;;;;;;10.20;5.90;;;2.80;99.90;;;;;;5025328;28;20450;-61
2020/12/17 05:54:32;;;;;;;12.03;5.57;;;2.80;99.90;;;;;;5007222;28;20457;-59
2020/12/17 05:57:10;;;;;;;24.00;7.60;;;2.80;99.90;;;;;;5023225;28;20572;-62
2020/12/17 05:59:36;;;;;;;12.80;5.83;;;2.80;99.90;;;;;;5018587;28;20443;-61
2020/12/17 06:02:30;;;;;;;13.50;6.43;;;2.80;99.90;;;;;;5021271;28;20438;-62
2020/12/17 06:05:13;;;;;;;18.17;6.40;;;2.80;99.90;;;;;;5056334;22;20250;-55
2020/12/17 06:07:48;;;;;;;16.10;7.67;;;2.80;99.90;;;;;;5040969;28;20419;-56
2020/12/17 06:10:28;;;;;;;17.77;7.23;;;2.80;99.90;;;;;;5026356;28;20428;-56
2020/12/17 06:13:02;;;;;;;17.47;7.70;;;2.80;99.90;;;;;;5042516;28;20439;-56
2020/12/17 06:15:30;;;;;;;18.07;7.60;;;2.80;99.90;;;;;;5031723;28;20456;-56
2020/12/17 06:17:58;;;;;;;18.90;7.37;;;2.90;99.90;;;;;;5036628;28;21156;-57
2020/12/17 06:20:26;;;;;;;21.00;7.03;;;2.80;99.90;;;;;;5031368;28;20407;-55
2020/12/17 06:22:58;;;;;;;25.90;7.80;;;2.80;99.90;;;;;;5039203;28;21131;-56
2020/12/17 06:25:26;;;;;;;21.13;7.57;;;2.80;99.90;;;;;;5042072;28;20473;-56
2020/12/17 06:27:53;;;;;;;41.00;8.37;;;2.80;99.90;;;;;;5041469;28;20439;-56
2020/12/17 06:30:29;;;;;;;29.77;6.70;;;2.80;99.90;;;;;;5038813;28;20420;-56
2020/12/17 06:32:57;;;;;;;17.77;8.10;;;2.80;99.90;;;;;;5036985;28;20439;-57
2020/12/17 06:35:29;;;;;;;20.37;8.13;;;2.80;99.90;;;;;;5037256;28;20460;-56
2020/12/17 06:38:06;;;;;;;19.87;7.50;;;2.90;99.90;;;;;;5046379;28;20433;-56
2020/12/17 06:40:32;;;;;;;36.03;8.27;;;2.90;99.90;;;;;;5045923;28;21521;-54
2020/12/17 06:42:58;;;;;;;18.50;7.50;;;2.90;99.90;;;;;;5041142;28;20444;-56
2020/12/17 06:45:27;;;;;;;24.13;7.37;;;2.90;99.90;;;;;;5041702;28;20298;-56
2020/12/17 06:47:53;;;;;;;16.07;7.40;;;2.90;99.90;;;;;;5040629;28;20193;-57
2020/12/17 06:50:24;;;;;;;22.20;7.30;;;2.90;99.90;;;;;;5014579;28;20420;-56
2020/12/17 06:53:06;;;;;;;16.87;6.80;;;2.90;99.90;;;;;;5047325;28;20452;-56
2020/12/17 06:55:50;;;;;;;17.23;8.90;;;3.00;99.90;;;;;;5041912;28;20467;-56
2020/12/17 06:58:25;;;;;;;18.40;8.13;;;3.00;99.90;;;;;;5038249;28;20594;-56
2020/12/17 07:00:52;;;;;;;17.37;7.50;;;3.00;99.90;;;;;;5033796;28;20429;-57
2020/12/17 07:03:42;;;;;;;18.40;7.90;;;3.00;99.90;;;;;;5030238;28;20820;-57
2020/12/17 07:06:13;;;;;;;16.80;6.97;;;3.00;99.90;;;;;;5038751;28;20523;-57
2020/12/17 07:08:39;;;;;;;26.20;8.93;;;3.00;99.90;;;;;;5040784;28;20433;-56
2020/12/17 07:11:07;;;;;;;18.50;8.40;;;3.00;99.90;;;;;;5020332;28;20457;-55
2020/12/17 07:13:40;;;;;;;16.53;8.03;;;3.00;99.90;;;;;;5037173;28;20453;-56
2020/12/17 07:16:17;;;;;;;16.77;8.07;;;3.00;99.90;;;;;;5034499;28;20427;-56
2020/12/17 07:18:43;;;;;;;17.37;7.67;;;3.00;99.90;;;;;;5038896;28;20514;-57
2020/12/17 07:21:09;;;;;;;26.10;9.40;;;3.00;99.90;;;;;;5043772;28;20440;-58
2020/12/17 07:23:39;;;;;;;17.27;7.93;;;3.10;99.90;;;;;;5037852;28;20203;-56
2020/12/17 07:26:06;;;;;;;17.97;9.43;;;3.10;99.90;;;;;;5037671;28;20565;-56
2020/12/17 07:28:33;;;;;;;15.40;7.60;;;3.10;99.90;;;;;;5034581;28;20528;-57
2020/12/17 07:30:58;;;;;;;19.27;9.30;;;3.10;99.90;;;;;;5036887;28;20426;-54
2020/12/17 07:33:41;;;;;;;15.60;7.27;;;3.10;99.90;;;;;;5015900;28;20606;-56
2020/12/17 07:36:09;;;;;;;18.80;9.13;;;3.20;99.90;;;;;;5036890;28;20194;-56
2020/12/17 07:38:36;;;;;;;18.00;9.00;;;3.20;99.90;;;;;;5030736;28;21077;-56
2020/12/17 07:41:02;;;;;;;19.53;8.13;;;3.20;99.90;;;;;;5046305;28;20425;-58
2020/12/17 07:43:39;;;;;;;22.03;10.03;;;3.20;99.90;;;;;;5020670;28;20437;-56
2020/12/17 07:46:05;;;;;;;25.53;8.60;;;3.20;99.90;;;;;;5039761;28;20237;-58
2020/12/17 07:48:37;;;;;;;25.43;9.20;;;3.30;99.90;;;;;;5040414;28;20437;-57
2020/12/17 07:51:25;;;;;;;21.80;9.30;;;3.30;99.90;;;;;;5034410;28;20491;-55
2020/12/17 07:53:52;;;;;;;27.40;11.30;;;3.30;99.90;;;;;;4978611;28;20454;-56
2020/12/17 07:56:18;;;;;;;17.90;8.30;;;3.30;99.90;;;;;;5022966;28;21225;-56
2020/12/17 07:58:44;;;;;;;16.33;8.10;;;3.30;99.90;;;;;;5035160;28;20525;-57
2020/12/17 08:01:12;;;;;;;28.53;8.27;;;3.30;99.90;;;;;;5038280;28;20864;-57
2020/12/17 08:03:50;;;;;;;22.80;9.03;;;3.30;99.90;;;;;;5040855;28;21033;-57
2020/12/17 08:06:24;;;;;;;22.13;9.80;;;3.30;99.90;;;;;;5040358;28;20414;-56
2020/12/17 08:09:01;;;;;;;24.73;9.60;;;3.30;99.90;;;;;;5037134;28;20927;-57
2020/12/17 08:11:27;;;;;;;19.77;8.50;;;3.30;99.90;;;;;;5042497;28;20433;-57
2020/12/17 08:14:04;;;;;;;22.37;9.40;;;3.30;99.90;;;;;;5039908;28;20454;-57
2020/12/17 08:16:31;;;;;;;21.03;9.60;;;3.30;99.90;;;;;;5037436;28;21001;-58
2020/12/17 08:18:59;;;;;;;18.10;8.87;;;3.40;99.90;;;;;;5044630;28;20520;-57
2020/12/17 08:21:25;;;;;;;24.33;10.47;;;3.40;99.90;;;;;;5041211;28;20426;-57
2020/12/17 08:23:52;;;;;;;26.00;11.07;;;3.40;99.90;;;;;;5040996;28;21000;-56
2020/12/17 08:26:23;;;;;;;29.97;10.13;;;3.40;99.90;;;;;;5042472;28;20859;-57
2020/12/17 08:28:50;;;;;;;24.30;9.37;;;3.50;99.90;;;;;;5041403;28;20422;-56
2020/12/17 08:31:17;;;;;;;23.20;9.27;;;3.50;99.90;;;;;;5039102;28;20440;-57
2020/12/17 08:33:45;;;;;;;28.23;9.53;;;3.50;99.90;;;;;;5041803;28;20482;-56
2020/12/17 08:36:13;;;;;;;22.93;9.27;;;3.60;99.90;;;;;;5037348;28;20222;-57
2020/12/17 08:38:40;;;;;;;32.03;10.70;;;3.60;99.90;;;;;;5041788;28;20421;-57
2020/12/17 08:41:08;;;;;;;24.50;10.37;;;3.60;99.90;;;;;;5040095;28;20412;-56
2020/12/17 08:43:46;;;;;;;27.57;9.57;;;3.70;99.90;;;;;;5036742;28;20467;-57
2020/12/17 08:46:14;;;;;;;23.70;10.47;;;3.70;99.90;;;;;;5043738;28;20436;-57
2020/12/17 08:48:41;;;;;;;31.77;11.77;;;3.70;99.90;;;;;;5042394;28;20418;-59
2020/12/17 08:51:15;;;;;;;25.10;11.07;;;3.70;99.90;;;;;;5042862;28;20442;-57
2020/12/17 08:53:43;;;;;;;22.53;10.23;;;3.70;99.90;;;;;;5041421;28;21092;-56
2020/12/17 08:56:18;;;;;;;28.33;10.87;;;3.70;99.90;;;;;;5016255;28;20434;-57
2020/12/17 08:58:45;;;;;;;37.43;12.27;;;3.80;99.90;;;;;;5037981;28;20434;-58
2020/12/17 09:01:35;;;;;;;28.83;11.60;;;3.80;99.90;;;;;;5037921;28;21362;-58
2020/12/17 09:04:08;;;;;;;27.73;11.27;;;3.80;99.90;;;;;;5011658;28;20520;-56
2020/12/17 09:06:37;;;;;;;27.40;10.40;;;3.80;99.90;;;;;;5042879;28;20414;-57
2020/12/17 09:09:14;;;;;;;29.63;11.57;;;3.80;99.90;;;;;;5042789;28;20516;-57
2020/12/17 09:11:44;;;;;;;30.50;11.10;;;3.80;99.90;;;;;;5043612;28;20443;-56
2020/12/17 09:14:11;;;;;;;32.63;12.10;;;3.80;99.90;;;;;;5039357;28;20467;-56
2020/12/17 09:16:39;;;;;;;28.87;11.90;;;3.80;99.90;;;;;;5040056;28;20958;-58
2020/12/17 09:19:08;;;;;;;29.17;11.70;;;3.80;99.90;;;;;;5041564;28;20467;-57
2020/12/17 09:21:58;;;;;;;32.53;12.20;;;3.90;99.90;;;;;;5039471;28;20436;-57
2020/12/17 09:24:28;;;;;;;41.67;13.40;;;3.90;99.90;;;;;;5037181;28;20472;-57
2020/12/17 09:26:56;;;;;;;38.70;12.70;;;3.90;99.90;;;;;;5035133;28;20437;-57
2020/12/17 09:29:22;;;;;;;41.33;13.77;;;3.90;99.90;;;;;;5040055;28;20459;-57
2020/12/17 09:31:48;;;;;;;42.00;15.30;;;3.90;99.90;;;;;;5038525;28;20441;-57
2020/12/17 09:34:17;;;;;;;35.27;14.37;;;3.90;99.90;;;;;;5039442;28;20453;-58
2020/12/17 09:36:54;;;;;;;40.60;14.13;;;3.90;99.90;;;;;;5039569;28;20440;-58
2020/12/17 09:39:20;;;;;;;35.07;12.50;;;4.00;99.90;;;;;;5038003;28;20431;-59
2020/12/17 09:41:56;;;;;;;36.37;13.60;;;4.00;99.90;;;;;;5041388;28;20415;-57
2020/12/17 09:44:31;;;;;;;38.67;12.10;;;4.00;99.90;;;;;;5038207;28;20457;-59
2020/12/17 09:46:58;;;;;;;28.70;13.30;;;4.00;99.90;;;;;;5038633;28;20856;-59
2020/12/17 09:49:29;;;;;;;38.20;15.10;;;4.00;99.90;;;;;;5036267;28;20422;-59
2020/12/17 09:52:01;;;;;;;38.93;13.73;;;4.10;99.90;;;;;;5039559;28;20437;-59
2020/12/17 09:54:26;;;;;;;36.67;14.00;;;4.10;99.90;;;;;;5037198;28;20458;-59
2020/12/17 09:57:13;;;;;;;41.70;14.00;;;4.10;99.90;;;;;;5030133;28;20448;-58
2020/12/17 09:59:41;;;;;;;49.20;13.20;;;4.10;99.90;;;;;;5014192;28;20443;-58
2020/12/17 10:02:12;;;;;;;36.50;14.10;;;4.10;99.90;;;;;;5035838;28;20433;-57
2020/12/17 10:04:39;;;;;;;37.37;13.37;;;4.10;99.90;;;;;;5036972;28;20479;-56
2020/12/17 10:07:06;;;;;;;32.13;13.47;;;4.20;99.90;;;;;;5034019;28;20443;-58
2020/12/17 10:09:32;;;;;;;32.90;12.70;;;4.20;99.90;;;;;;5038775;28;20430;-57
2020/12/17 10:11:58;;;;;;;40.70;14.43;;;4.20;99.90;;;;;;5038354;28;22737;-56
2020/12/17 10:14:27;;;;;;;40.23;13.30;;;4.20;99.90;;;;;;5018625;28;20460;-58
2020/12/17 10:17:01;;;;;;;37.27;13.10;;;4.20;99.90;;;;;;5036416;28;21187;-58
2020/12/17 10:19:28;;;;;;;34.60;12.50;;;4.20;99.90;;;;;;5031536;28;20973;-57
2020/12/17 10:21:55;;;;;;;39.13;14.83;;;4.30;99.90;;;;;;5037642;28;22206;-58
2020/12/17 10:24:21;;;;;;;30.93;13.00;;;4.30;99.90;;;;;;5015834;28;20497;-58
2020/12/17 10:26:47;;;;;;;43.23;15.00;;;4.30;99.90;;;;;;5035683;28;20464;-58
2020/12/17 10:29:14;;;;;;;31.97;14.00;;;4.40;99.90;;;;;;5036457;28;20429;-56
2020/12/17 10:31:41;;;;;;;37.63;15.87;;;4.40;99.90;;;;;;5034934;28;20868;-57
2020/12/17 10:34:07;;;;;;;40.53;14.53;;;4.50;99.90;;;;;;5032256;28;20592;-58
2020/12/17 10:36:39;;;;;;;37.10;13.57;;;4.50;99.90;;;;;;5038230;28;20564;-57
2020/12/17 10:39:07;;;;;;;37.37;14.13;;;4.50;99.90;;;;;;5043689;28;20187;-58
2020/12/17 10:41:34;;;;;;;40.10;15.73;;;4.50;99.90;;;;;;5037253;28;20549;-56
2020/12/17 10:44:01;;;;;;;32.77;14.17;;;4.50;99.90;;;;;;5034898;28;20461;-56
2020/12/17 10:46:27;;;;;;;39.57;14.57;;;4.60;99.90;;;;;;5005435;28;20439;-58
2020/12/17 10:48:53;;;;;;;35.90;16.03;;;4.60;99.90;;;;;;5040211;28;22870;-57
2020/12/17 10:51:22;;;;;;;35.00;14.10;;;4.60;99.90;;;;;;5047358;28;20417;-57
2020/12/17 10:53:48;;;;;;;41.47;15.13;;;4.60;99.90;;;;;;5039997;28;21066;-58
2020/12/17 10:56:15;;;;;;;36.07;14.83;;;4.70;99.90;;;;;;5014632;28;20663;-58
2020/12/17 10:58:43;;;;;;;35.43;14.00;;;4.70;99.90;;;;;;5032773;28;20439;-59
2020/12/17 11:01:09;;;;;;;35.30;13.83;;;4.70;99.90;;;;;;5032699;28;20425;-59
2020/12/17 11:03:35;;;;;;;33.87;13.40;;;4.70;99.90;;;;;;5038039;28;20499;-56
2020/12/17 11:06:01;;;;;;;38.63;14.83;;;4.80;99.90;;;;;;5031800;28;20432;-57
2020/12/17 11:08:28;;;;;;;32.90;14.77;;;4.80;99.90;;;;;;5036526;28;20432;-56
2020/12/17 11:10:54;;;;;;;27.20;11.93;;;4.80;99.90;;;;;;5034962;28;20441;-57
2020/12/17 11:13:21;;;;;;;23.73;11.03;;;4.80;99.90;;;;;;5034164;28;20490;-58
2020/12/17 11:15:50;;;;;;;24.60;11.53;;;4.90;99.90;;;;;;5037554;28;21459;-56
2020/12/17 11:18:17;;;;;;;18.30;10.40;;;4.90;99.90;;;;;;5043619;28;20425;-57
2020/12/17 11:20:44;;;;;;;20.33;11.30;;;5.00;99.90;;;;;;5036825;28;20474;-57
2020/12/17 11:23:10;;;;;;;18.57;10.30;;;5.10;99.90;;;;;;5037802;28;20441;-57
2020/12/17 11:25:39;;;;;;;19.30;10.73;;;5.10;99.90;;;;;;5029782;28;20476;-58
2020/12/17 11:28:08;;;;;;;20.83;11.27;;;5.20;99.90;;;;;;5027432;28;20179;-58
2020/12/17 11:30:36;;;;;;;19.57;10.20;;;5.20;99.90;;;;;;5008717;28;20453;-57
2020/12/17 11:33:03;;;;;;;21.97;11.17;;;5.20;99.90;;;;;;5036257;28;20436;-57
2020/12/17 11:35:29;;;;;;;19.60;9.57;;;5.20;99.90;;;;;;5038568;28;20458;-57
2020/12/17 11:37:55;;;;;;;20.30;10.20;;;5.20;99.90;;;;;;5044723;28;20437;-56
2020/12/17 11:40:22;;;;;;;21.10;9.67;;;5.20;99.90;;;;;;5041076;28;20460;-58
2020/12/17 11:42:53;;;;;;;20.47;11.33;;;5.20;99.90;;;;;;5038751;28;20442;-57
2020/12/17 11:45:19;;;;;;;17.80;9.50;;;5.20;99.90;;;;;;5030685;28;20488;-58
2020/12/17 11:47:45;;;;;;;18.07;10.80;;;5.20;99.90;;;;;;5037058;28;21117;-58
2020/12/17 11:50:11;;;;;;;24.07;11.13;;;5.20;99.90;;;;;;5026459;28;20290;-57
2020/12/17 11:52:37;;;;;;;19.10;10.93;;;5.20;99.90;;;;;;5040419;28;20282;-58
2020/12/17 11:55:08;;;;;;;21.03;10.57;;;5.20;99.90;;;;;;5027815;28;20539;-56
2020/12/17 11:57:34;;;;;;;26.87;11.20;;;5.30;99.90;;;;;;5040500;28;20532;-58
2020/12/17 12:00:00;;;;;;;21.00;11.30;;;5.30;99.90;;;;;;5023483;28;21034;-57
2020/12/17 12:02:26;;;;;;;22.27;10.87;;;5.30;99.90;;;;;;5044988;28;20425;-56
2020/12/17 12:04:52;;;;;;;22.50;11.07;;;5.40;99.90;;;;;;5068778;23;20864;-62
2020/12/17 12:07:17;;;;;;;20.80;11.13;;;5.40;99.90;;;;;;5058636;28;20190;-61
2020/12/17 12:09:43;;;;;;;26.13;12.27;;;5.40;99.90;;;;;;5072408;28;20220;-63
2020/12/17 12:12:10;;;;;;;20.80;10.03;;;5.40;99.90;;;;;;5043918;28;20185;-62
2020/12/17 12:14:37;;;;;;;19.40;9.90;;;5.40;99.90;;;;;;5063580;28;20444;-61
2020/12/17 12:17:03;;;;;;;19.50;10.70;;;5.30;99.90;;;;;;5052774;28;20447;-61
2020/12/17 12:19:29;;;;;;;20.10;10.40;;;5.30;99.90;;;;;;5070212;28;20428;-61
2020/12/17 12:21:54;;;;;;;20.47;10.80;;;5.30;99.90;;;;;;5068539;28;20254;-61
2020/12/17 12:24:20;;;;;;;21.80;10.90;;;5.30;99.90;;;;;;5072114;28;20210;-62
2020/12/17 12:26:47;;;;;;;26.03;12.50;;;5.30;99.90;;;;;;5068520;28;20596;-61
2020/12/17 12:29:13;;;;;;;23.50;11.60;;;5.40;99.90;;;;;;5069480;28;20515;-61
2020/12/17 12:31:39;;;;;;;23.37;11.60;;;5.40;99.90;;;;;;5064293;28;20436;-61
2020/12/17 12:34:04;;;;;;;22.83;11.53;;;5.40;99.90;;;;;;5067087;28;20699;-60
2020/12/17 12:36:30;;;;;;;24.37;12.20;;;5.40;99.90;;;;;;5046959;28;20190;-60
2020/12/17 12:38:56;;;;;;;24.03;11.73;;;5.30;99.90;;;;;;5063018;28;20213;-60
2020/12/17 12:41:22;;;;;;;20.50;12.00;;;5.30;99.90;;;;;;5046646;28;20468;-60
2020/12/17 12:43:48;;;;;;;26.70;11.80;;;5.30;99.90;;;;;;5057709;28;20182;-60
2020/12/17 12:46:22;;;;;;;21.80;11.83;;;5.30;99.90;;;;;;5049474;28;20207;-60
2020/12/17 12:48:49;;;;;;;21.97;11.90;;;5.30;99.90;;;;;;5058584;28;21133;-60